Time;durP1;ratioP1;P1;durP2;ratioP2;P2;SDS_P1;SDS_P2;PMS_P1;PMS_P2;Temp;Humidity;BMP_temperature;BMP_pressure;BME280_temperature;BME280_humidity;BME280_pressure;Samples;Min_cycle;Max_cycle;Signal;HPM_P1;HPM_P2
2022/01/17 00:02:02;;;;;;;9.07;3.30;;;6.20;99.90;;;;;;5093422;28;20191;-75
2022/01/17 00:04:27;;;;;;;5.80;3.37;;;6.30;99.90;;;;;;5093411;28;20286;-77
2022/01/17 00:06:53;;;;;;;7.77;2.77;;;6.30;99.90;;;;;;5073570;28;20420;-76
2022/01/17 00:09:19;;;;;;;9.97;2.80;;;6.30;99.90;;;;;;5073338;28;20187;-74
2022/01/17 00:11:48;;;;;;;10.00;2.57;;;6.30;99.90;;;;;;5092259;28;20613;-79
2022/01/17 00:14:17;;;;;;;7.93;2.57;;;6.30;99.90;;;;;;5093035;28;20178;-75
2022/01/17 00:17:04;;;;;;;8.67;2.13;;;6.40;99.90;;;;;;5073113;28;20424;-74
2022/01/17 00:19:38;;;;;;;8.37;3.53;;;6.40;99.90;;;;;;5073355;28;20447;-74
2022/01/17 00:22:04;;;;;;;6.87;3.60;;;6.40;99.90;;;;;;5093269;28;20784;-75
2022/01/17 00:24:29;;;;;;;4.80;3.13;;;6.40;99.90;;;;;;5092239;28;20402;-78
2022/01/17 00:26:55;;;;;;;4.13;2.17;;;6.30;99.90;;;;;;5074011;28;20220;-74
2022/01/17 00:29:21;;;;;;;11.50;3.10;;;6.40;99.90;;;;;;5074559;28;20172;-75
2022/01/17 00:31:46;;;;;;;13.70;3.93;;;6.40;99.90;;;;;;5092244;28;20940;-77
2022/01/17 00:34:12;;;;;;;4.53;2.00;;;6.40;99.90;;;;;;5092277;28;20196;-73
2022/01/17 00:36:38;;;;;;;4.90;3.20;;;6.40;99.90;;;;;;5093116;28;20199;-73
2022/01/17 00:39:04;;;;;;;5.73;2.80;;;6.40;99.90;;;;;;5091993;28;20392;-74
2022/01/17 00:41:29;;;;;;;9.67;2.50;;;6.40;99.90;;;;;;5073391;28;20670;-74
2022/01/17 00:43:55;;;;;;;18.90;3.80;;;6.40;99.90;;;;;;5073063;28;20459;-76
2022/01/17 00:46:21;;;;;;;3.70;2.50;;;6.40;99.90;;;;;;5089831;28;20256;-77
2022/01/17 00:48:46;;;;;;;2.57;1.83;;;6.40;99.90;;;;;;5091878;28;20833;-75
2022/01/17 00:51:12;;;;;;;7.50;2.47;;;6.40;99.90;;;;;;5076742;28;20233;-76
2022/01/17 00:53:38;;;;;;;6.40;2.40;;;6.40;99.90;;;;;;5072637;28;20257;-77
2022/01/17 00:56:06;;;;;;;8.10;2.53;;;6.40;99.90;;;;;;5085949;28;20180;-74
2022/01/17 00:58:32;;;;;;;9.53;2.80;;;6.40;99.90;;;;;;5092096;28;20630;-78
2022/01/17 01:00:58;;;;;;;15.63;2.67;;;6.40;99.90;;;;;;5080371;28;20467;-76
2022/01/17 01:03:23;;;;;;;9.57;3.00;;;6.40;99.90;;;;;;5054657;28;20429;-77
2022/01/17 01:05:49;;;;;;;11.60;3.50;;;6.40;99.90;;;;;;5082393;28;20169;-74
2022/01/17 01:08:15;;;;;;;8.57;2.60;;;6.40;99.90;;;;;;5095405;28;20189;-73
2022/01/17 01:10:41;;;;;;;14.83;2.40;;;6.40;99.90;;;;;;5091416;28;20280;-76
2022/01/17 01:13:06;;;;;;;6.67;2.80;;;6.40;99.90;;;;;;5096683;28;20206;-78
2022/01/17 01:18:15;;;;;;;5.43;3.10;;;6.40;99.90;;;;;;5096660;28;20170;-75
2022/01/17 01:28:36;;;;;;;7.53;3.07;;;6.50;99.90;;;;;;5095323;28;20453;-76
2022/01/17 01:31:07;;;;;;;9.13;3.77;;;6.50;99.90;;;;;;5095544;28;20850;-74
2022/01/17 01:33:37;;;;;;;12.13;4.50;;;6.50;99.90;;;;;;5096117;28;20203;-76
2022/01/17 01:36:28;;;;;;;16.23;3.60;;;6.50;99.90;;;;;;5079625;28;20478;-76
2022/01/17 01:38:49;;;;;;;4.43;3.67;;;6.50;99.90;;;;;;5073996;28;20424;-76
2022/01/17 01:41:15;;;;;;;10.83;2.77;;;6.60;99.90;;;;;;5093181;28;20470;-76
2022/01/17 01:43:41;;;;;;;12.07;3.07;;;6.60;99.90;;;;;;5095985;28;20168;-74
2022/01/17 01:46:06;;;;;;;16.87;2.50;;;6.60;99.90;;;;;;5079029;28;20178;-74
2022/01/17 01:48:34;;;;;;;16.20;2.40;;;6.60;99.90;;;;;;5075006;28;20562;-75
2022/01/17 01:51:00;;;;;;;6.50;2.47;;;6.60;99.90;;;;;;5089511;28;20197;-73
2022/01/17 01:53:26;;;;;;;9.17;2.43;;;6.60;99.90;;;;;;5095778;28;20490;-76
2022/01/17 01:55:54;;;;;;;6.40;2.53;;;6.70;99.90;;;;;;5082848;28;20507;-74
2022/01/17 01:58:22;;;;;;;15.27;3.30;;;6.70;99.90;;;;;;5057493;28;20466;-77
2022/01/17 02:00:48;;;;;;;9.80;2.73;;;6.70;99.90;;;;;;5086037;28;20459;-74
2022/01/17 02:03:14;;;;;;;5.67;2.30;;;6.70;99.90;;;;;;5095186;28;20406;-75
2022/01/17 02:05:40;;;;;;;5.20;2.83;;;6.70;99.90;;;;;;5085367;28;20416;-74
2022/01/17 02:08:08;;;;;;;8.63;4.23;;;6.70;99.90;;;;;;5075241;28;20178;-75
2022/01/17 02:10:34;;;;;;;7.90;3.03;;;6.70;99.90;;;;;;5078848;28;20447;-74
2022/01/17 02:13:00;;;;;;;10.43;2.10;;;6.70;99.90;;;;;;5095374;28;20985;-77
2022/01/17 02:15:25;;;;;;;3.80;3.40;;;6.70;99.90;;;;;;5081217;28;20186;-76
2022/01/17 02:17:55;;;;;;;6.67;3.30;;;6.70;99.90;;;;;;5079717;28;20719;-74
2022/01/17 02:20:35;;;;;;;4.67;2.10;;;6.70;99.90;;;;;;5094047;28;20303;-74
2022/01/17 02:23:04;;;;;;;8.33;3.60;;;6.80;99.90;;;;;;5088229;28;20416;-76
2022/01/17 02:25:33;;;;;;;7.73;2.47;;;6.80;99.90;;;;;;5074995;28;20512;-79
2022/01/17 02:27:59;;;;;;;11.90;4.63;;;6.80;99.90;;;;;;5080292;28;20513;-77
2022/01/17 02:30:27;;;;;;;10.83;3.50;;;6.80;99.90;;;;;;5093354;28;20645;-77
2022/01/17 02:32:53;;;;;;;7.33;3.37;;;6.80;99.90;;;;;;5095133;28;20177;-76
2022/01/17 02:35:24;;;;;;;10.43;3.30;;;6.80;99.90;;;;;;5094375;28;20419;-76
2022/01/17 02:37:51;;;;;;;1.90;1.70;;;6.80;99.90;;;;;;5094995;28;20582;-74
2022/01/17 02:40:18;;;;;;;6.60;3.23;;;6.80;99.90;;;;;;5083313;28;20480;-76
2022/01/17 02:42:48;;;;;;;6.17;5.57;;;6.80;99.90;;;;;;5074018;28;20408;-75
2022/01/17 02:45:31;;;;;;;17.90;3.30;;;6.90;99.90;;;;;;5083781;28;20908;-75
2022/01/17 02:48:04;;;;;;;2.97;2.30;;;6.90;99.90;;;;;;5094789;28;20907;-77
2022/01/17 02:50:29;;;;;;;5.00;2.57;;;6.90;99.90;;;;;;5082546;28;20959;-78
2022/01/17 02:53:04;;;;;;;7.87;2.53;;;6.90;99.90;;;;;;5074513;28;20401;-78
2022/01/17 02:55:30;;;;;;;3.67;2.87;;;6.90;99.90;;;;;;5084803;28;20177;-75
2022/01/17 02:57:56;;;;;;;7.20;2.33;;;6.90;99.90;;;;;;5094718;28;20403;-74
2022/01/17 03:00:22;;;;;;;8.37;3.33;;;6.90;99.90;;;;;;5083738;28;20894;-78
2022/01/17 03:02:49;;;;;;;3.80;1.77;;;7.00;99.90;;;;;;5074255;28;20440;-77
2022/01/17 03:05:19;;;;;;;12.47;2.73;;;7.00;99.90;;;;;;5081431;28;20503;-74
2022/01/17 03:07:46;;;;;;;17.40;2.80;;;7.00;99.90;;;;;;5094415;28;20825;-77
2022/01/17 03:10:27;;;;;;;10.40;3.27;;;7.00;99.90;;;;;;5086761;28;20955;-76
2022/01/17 03:12:52;;;;;;;18.70;4.03;;;7.00;99.90;;;;;;5074278;28;20401;-77
2022/01/17 03:15:21;;;;;;;6.80;2.40;;;7.10;99.90;;;;;;5080478;28;20468;-74
2022/01/17 03:17:46;;;;;;;8.70;3.47;;;7.10;99.90;;;;;;5093882;28;20177;-76
2022/01/17 03:20:12;;;;;;;14.77;3.10;;;7.10;99.90;;;;;;5087575;28;20594;-77
2022/01/17 03:22:39;;;;;;;8.63;2.17;;;7.10;99.90;;;;;;5073946;28;20171;-75
2022/01/17 03:25:05;;;;;;;8.70;2.33;;;7.10;99.90;;;;;;5077327;28;20211;-76
2022/01/17 03:27:31;;;;;;;6.40;3.00;;;7.10;99.90;;;;;;5094037;28;20430;-76
2022/01/17 03:29:56;;;;;;;6.73;2.13;;;7.10;99.90;;;;;;5090462;28;20912;-77
2022/01/17 03:32:22;;;;;;;9.27;2.67;;;7.10;99.90;;;;;;5056053;28;20174;-74
2022/01/17 03:34:47;;;;;;;14.53;3.53;;;7.20;99.90;;;;;;5073058;28;20217;-77
2022/01/17 03:37:13;;;;;;;9.67;2.53;;;7.10;99.90;;;;;;5093952;28;20181;-76
2022/01/17 03:39:39;;;;;;;3.30;2.33;;;7.10;99.90;;;;;;5090618;28;20192;-75
2022/01/17 03:42:04;;;;;;;7.30;2.80;;;7.10;99.90;;;;;;5092366;28;20205;-78
2022/01/17 03:44:30;;;;;;;12.70;3.30;;;7.10;99.90;;;;;;5093122;28;20165;-77
2022/01/17 03:46:56;;;;;;;16.73;2.13;;;7.10;99.90;;;;;;5093805;28;20260;-76
2022/01/17 03:49:21;;;;;;;12.80;4.33;;;7.00;1.00;;;;;;5092895;28;20245;-76
2022/01/17 03:51:47;;;;;;;6.03;2.97;;;6.90;1.00;;;;;;5074282;28;20300;-74
2022/01/17 03:54:12;;;;;;;5.50;3.30;;;6.90;1.00;;;;;;5073271;28;20177;-75
2022/01/17 03:56:38;;;;;;;4.33;1.90;;;6.80;1.00;;;;;;5093495;28;20263;-77
2022/01/17 03:59:04;;;;;;;9.67;2.23;;;6.80;1.00;;;;;;5092686;28;20226;-76
2022/01/17 04:01:29;;;;;;;12.00;3.70;;;6.80;1.00;;;;;;5074527;28;20208;-76
2022/01/17 04:03:55;;;;;;;17.50;3.93;;;6.80;1.00;;;;;;5093684;28;20172;-76
2022/01/17 04:06:21;;;;;;;8.43;2.70;;;6.80;1.00;;;;;;5075915;28;20189;-77
2022/01/17 04:08:46;;;;;;;5.53;2.50;;;6.80;1.00;;;;;;5072204;28;20562;-74
2022/01/17 04:11:12;;;;;;;7.33;2.20;;;6.80;1.00;;;;;;5069940;28;20443;-77
2022/01/17 04:13:38;;;;;;;6.73;3.30;;;6.70;1.00;;;;;;5093228;28;20177;-76
2022/01/17 04:16:04;;;;;;;1.77;1.67;;;6.80;1.00;;;;;;5079292;28;20185;-75
2022/01/17 04:18:29;;;;;;;12.03;3.00;;;6.80;1.00;;;;;;5072422;28;20177;-78
2022/01/17 04:20:57;;;;;;;6.60;2.60;;;6.80;1.00;;;;;;5084567;28;20494;-76
2022/01/17 04:23:23;;;;;;;8.23;2.90;;;6.70;1.00;;;;;;5093225;28;20159;-79
2022/01/17 04:25:49;;;;;;;19.27;3.07;;;6.80;1.00;;;;;;5082271;28;20434;-75
2022/01/17 04:28:15;;;;;;;16.13;2.90;;;6.70;1.00;;;;;;5072964;28;20167;-75
2022/01/17 04:30:42;;;;;;;12.23;2.60;;;6.70;1.00;;;;;;5088925;28;20459;-76
2022/01/17 04:33:08;;;;;;;10.93;2.83;;;6.80;1.00;;;;;;5093121;28;20175;-75
2022/01/17 04:35:35;;;;;;;4.80;2.80;;;6.80;1.00;;;;;;5076454;28;20792;-77
2022/01/17 04:38:06;;;;;;;8.33;3.10;;;6.80;1.00;;;;;;5072935;28;20256;-79
2022/01/17 04:40:36;;;;;;;7.50;3.17;;;6.70;1.00;;;;;;5087176;28;20466;-77
2022/01/17 04:43:05;;;;;;;10.83;3.80;;;6.70;1.00;;;;;;5096119;28;20830;-76
2022/01/17 04:45:32;;;;;;;3.87;2.67;;;6.80;1.00;;;;;;5082143;28;20412;-74
2022/01/17 04:47:58;;;;;;;2.80;2.30;;;6.80;1.00;;;;;;5076477;28;20407;-76
2022/01/17 04:50:26;;;;;;;4.90;2.23;;;6.90;1.00;;;;;;5088918;28;20435;-76
2022/01/17 04:52:55;;;;;;;9.83;3.90;;;6.90;1.00;;;;;;5097057;28;20652;-76
2022/01/17 04:55:22;;;;;;;5.10;3.13;;;6.10;1.00;;;;;;5093220;28;20422;-76
2022/01/17 04:57:48;;;;;;;8.27;2.20;;;6.90;1.00;;;;;;5078974;28;20418;-76
2022/01/17 05:00:17;;;;;;;4.03;2.90;;;6.90;1.00;;;;;;5081869;28;20542;-77
2022/01/17 05:02:43;;;;;;;4.70;2.47;;;7.00;1.00;;;;;;5076648;28;20840;-77
2022/01/17 05:05:11;;;;;;;5.63;2.57;;;7.00;1.00;;;;;;5089022;28;20420;-74
2022/01/17 05:07:38;;;;;;;5.40;2.30;;;7.00;1.00;;;;;;5096779;28;20422;-74
2022/01/17 05:10:07;;;;;;;4.83;2.80;;;7.00;1.00;;;;;;5094088;28;20451;-76
2022/01/17 05:12:33;;;;;;;4.60;2.33;;;7.00;1.00;;;;;;5096803;28;20411;-77
2022/01/17 05:14:59;;;;;;;10.57;2.90;;;7.00;1.00;;;;;;5081682;28;20452;-74
2022/01/17 05:20:00;;;;;;;5.87;2.10;;;7.00;1.00;;;;;;5088880;28;20205;-77
2022/01/17 05:22:32;;;;;;;6.53;2.40;;;7.00;1.00;;;;;;5095916;28;20403;-76
2022/01/17 05:24:59;;;;;;;9.40;2.40;;;7.00;1.00;;;;;;5082719;28;20519;-77
2022/01/17 05:27:25;;;;;;;7.63;2.63;;;7.00;1.00;;;;;;5058034;28;20503;-76
2022/01/17 05:29:51;;;;;;;9.23;3.17;;;7.10;1.00;;;;;;5086748;28;20510;-73
2022/01/17 05:32:17;;;;;;;7.13;2.30;;;7.00;1.00;;;;;;5096316;28;20497;-74
2022/01/17 05:34:43;;;;;;;8.60;2.23;;;7.00;1.00;;;;;;5067813;28;20431;-76
2022/01/17 05:37:10;;;;;;;9.90;3.30;;;7.00;1.00;;;;;;5075835;28;20174;-76
2022/01/17 05:39:37;;;;;;;5.90;3.07;;;7.00;1.00;;;;;;5082850;28;20942;-76
2022/01/17 05:42:03;;;;;;;13.90;2.47;;;7.10;1.00;;;;;;5095904;28;20426;-75
2022/01/17 05:44:30;;;;;;;3.10;1.83;;;7.10;1.00;;;;;;5088776;28;20416;-72
2022/01/17 05:46:55;;;;;;;3.60;1.87;;;7.10;1.00;;;;;;5075668;28;20430;-76
2022/01/17 05:49:21;;;;;;;7.00;1.70;;;7.10;1.00;;;;;;5079913;28;20423;-76
2022/01/17 05:51:47;;;;;;;4.83;2.20;;;7.20;1.00;;;;;;5095863;28;20208;-74
2022/01/17 05:54:12;;;;;;;7.13;1.90;;;7.20;1.00;;;;;;5093878;28;20173;-75
2022/01/17 05:56:38;;;;;;;6.80;2.53;;;6.70;1.00;;;;;;5096049;28;20256;-74
2022/01/17 05:59:04;;;;;;;3.30;2.30;;;7.20;1.00;;;;;;5090919;28;20185;-74
2022/01/17 06:01:29;;;;;;;4.83;2.53;;;7.20;1.00;;;;;;5057342;28;20202;-75
2022/01/17 06:03:55;;;;;;;7.13;2.40;;;7.20;1.00;;;;;;5076726;28;20170;-75
2022/01/17 06:06:20;;;;;;;7.70;2.40;;;7.20;1.00;;;;;;5095665;28;20166;-73
2022/01/17 06:08:46;;;;;;;4.87;2.33;;;7.20;1.00;;;;;;5090929;28;20197;-76
2022/01/17 06:11:12;;;;;;;6.70;2.33;;;7.30;1.00;;;;;;5079726;28;20225;-73
2022/01/17 06:13:38;;;;;;;3.80;1.77;;;7.20;1.00;;;;;;5095350;28;20263;-72
2022/01/17 06:16:04;;;;;;;10.70;4.50;;;7.20;1.00;;;;;;5094207;28;20821;-77
2022/01/17 06:18:30;;;;;;;9.40;2.40;;;7.20;1.00;;;;;;5094766;28;20650;-81
2022/01/17 06:20:55;;;;;;;5.50;2.77;;;7.30;1.00;;;;;;5095138;28;20808;-75
2022/01/17 06:23:21;;;;;;;3.63;2.37;;;7.30;1.00;;;;;;5077464;28;20179;-74
2022/01/17 06:25:47;;;;;;;7.27;2.40;;;7.30;1.00;;;;;;5095133;28;20200;-75
2022/01/17 06:28:13;;;;;;;8.90;2.00;;;7.30;1.00;;;;;;5077746;28;20170;-70
2022/01/17 06:30:38;;;;;;;6.60;2.63;;;7.30;1.00;;;;;;5089328;28;20512;-75
2022/01/17 06:33:04;;;;;;;6.80;2.90;;;7.20;1.00;;;;;;5094929;28;20494;-76
2022/01/17 06:35:31;;;;;;;8.63;2.00;;;7.30;1.00;;;;;;5080581;28;20186;-73
2022/01/17 06:37:57;;;;;;;16.27;3.10;;;7.40;1.00;;;;;;5074922;28;20170;-73
2022/01/17 06:40:23;;;;;;;13.37;4.27;;;7.40;1.00;;;;;;5085635;28;20466;-72
2022/01/17 06:42:50;;;;;;;4.90;2.70;;;7.40;1.00;;;;;;5095022;28;20404;-71
2022/01/17 06:45:18;;;;;;;10.47;2.67;;;7.40;1.00;;;;;;5083936;28;20428;-71
2022/01/17 06:47:44;;;;;;;19.63;3.97;;;7.40;1.00;;;;;;5074391;28;20400;-71
2022/01/17 06:50:11;;;;;;;10.73;3.20;;;7.50;1.00;;;;;;5082323;28;20443;-73
2022/01/17 06:52:38;;;;;;;16.47;3.10;;;7.50;1.00;;;;;;5094905;28;20396;-70
2022/01/17 06:55:05;;;;;;;6.97;2.43;;;7.50;1.00;;;;;;5086665;28;20420;-74
2022/01/17 06:57:31;;;;;;;4.50;2.97;;;7.50;1.00;;;;;;5074440;28;20799;-74
2022/01/17 06:59:56;;;;;;;8.23;3.23;;;7.60;1.00;;;;;;5079504;28;20466;-74
2022/01/17 07:02:22;;;;;;;7.90;3.13;;;7.60;1.00;;;;;;5094593;28;20212;-71
2022/01/17 07:04:48;;;;;;;14.60;3.50;;;7.60;1.00;;;;;;5070930;28;20181;-71
2022/01/17 07:07:17;;;;;;;9.40;3.17;;;7.60;1.00;;;;;;5056367;28;20176;-71
2022/01/17 07:09:43;;;;;;;10.57;2.83;;;7.60;1.00;;;;;;5058580;28;20165;-74
2022/01/17 07:12:09;;;;;;;7.20;2.80;;;7.60;1.00;;;;;;5094094;28;20483;-74
2022/01/17 07:14:41;;;;;;;9.23;2.47;;;7.60;1.00;;;;;;5092877;28;20403;-74
2022/01/17 07:17:11;;;;;;;10.47;3.10;;;7.60;1.00;;;;;;5094006;28;20430;-74
2022/01/17 07:19:38;;;;;;;11.53;3.57;;;7.60;1.00;;;;;;5091831;28;20396;-71
2022/01/17 07:22:04;;;;;;;18.20;3.77;;;7.50;1.00;;;;;;5055932;28;20960;-75
2022/01/17 07:24:30;;;;;;;9.77;3.00;;;7.50;1.00;;;;;;5073984;28;20397;-73
2022/01/17 07:26:56;;;;;;;5.53;2.90;;;7.50;1.00;;;;;;5075163;28;20458;-74
2022/01/17 07:29:24;;;;;;;4.20;2.40;;;7.50;1.00;;;;;;5074297;28;20170;-75
2022/01/17 07:31:50;;;;;;;6.37;2.30;;;7.40;1.00;;;;;;5074460;28;20288;-74
2022/01/17 07:34:16;;;;;;;9.77;2.77;;;7.30;1.00;;;;;;5073987;28;20820;-75
2022/01/17 07:36:42;;;;;;;9.23;2.57;;;7.30;1.00;;;;;;5056264;28;20452;-74
2022/01/17 07:39:07;;;;;;;2.30;1.90;;;7.30;1.00;;;;;;5072857;28;20483;-73
2022/01/17 07:41:33;;;;;;;14.37;2.20;;;7.20;1.00;;;;;;5092538;28;20207;-74
2022/01/17 07:44:02;;;;;;;10.40;2.40;;;7.10;1.00;;;;;;5093319;28;20223;-77
2022/01/17 07:49:10;;;;;;;6.20;2.00;;;6.90;1.00;;;;;;5072694;28;20488;-75
2022/01/17 07:51:38;;;;;;;2.40;1.87;;;6.90;1.00;;;;;;5091745;28;20451;-74
2022/01/17 07:54:04;;;;;;;3.03;2.20;;;6.90;1.00;;;;;;5093781;28;20516;-76
2022/01/17 07:56:32;;;;;;;3.27;1.77;;;6.80;1.00;;;;;;5075747;28;20459;-74
2022/01/17 07:58:57;;;;;;;10.03;2.20;;;6.90;1.00;;;;;;5072370;28;20404;-73
2022/01/17 08:01:23;;;;;;;5.23;1.87;;;6.80;1.00;;;;;;5088498;28;20455;-75
2022/01/17 08:03:49;;;;;;;6.30;2.30;;;6.80;1.00;;;;;;5075136;28;20170;-75
2022/01/17 08:06:15;;;;;;;3.37;1.73;;;6.80;1.00;;;;;;5060790;28;20261;-74
2022/01/17 08:08:40;;;;;;;2.27;1.83;;;6.80;1.00;;;;;;5072269;28;20189;-74
2022/01/17 08:11:06;;;;;;;2.27;1.57;;;6.80;1.00;;;;;;5066973;28;20732;-75
2022/01/17 08:13:31;;;;;;;13.50;3.17;;;6.70;1.00;;;;;;5093432;28;20174;-73
2022/01/17 08:15:57;;;;;;;8.83;2.77;;;6.80;1.00;;;;;;5064445;28;20217;-74
2022/01/17 08:18:23;;;;;;;8.20;2.07;;;6.80;1.00;;;;;;5072843;28;20174;-76
2022/01/17 08:20:48;;;;;;;9.73;2.23;;;6.80;1.00;;;;;;5080459;28;20206;-75
2022/01/17 08:23:14;;;;;;;4.57;2.00;;;6.70;1.00;;;;;;5092720;28;20176;-73
2022/01/17 08:25:40;;;;;;;3.20;2.07;;;6.70;1.00;;;;;;5086157;28;20177;-76
2022/01/17 08:28:05;;;;;;;2.17;1.87;;;6.70;1.00;;;;;;5072933;28;20166;-77
2022/01/17 08:30:32;;;;;;;8.53;2.17;;;6.70;1.00;;;;;;5090252;28;20228;-74
2022/01/17 08:32:59;;;;;;;3.53;2.00;;;6.60;1.00;;;;;;5093070;28;20169;-72
2022/01/17 08:35:25;;;;;;;1.47;1.37;;;6.70;1.00;;;;;;5057328;28;20511;-78
2022/01/17 08:37:50;;;;;;;11.73;3.00;;;6.60;1.00;;;;;;5072574;28;20511;-75
2022/01/17 08:40:18;;;;;;;3.10;2.03;;;6.50;1.00;;;;;;5086816;28;20209;-74
2022/01/17 08:42:44;;;;;;;9.53;2.57;;;6.50;1.00;;;;;;5074081;28;20173;-75
2022/01/17 08:45:13;;;;;;;3.73;2.00;;;6.40;1.00;;;;;;5089108;28;20415;-74
2022/01/17 08:47:39;;;;;;;2.20;2.00;;;6.40;1.00;;;;;;5092986;28;20395;-73
2022/01/17 08:50:08;;;;;;;5.37;2.67;;;6.50;1.00;;;;;;5091276;28;20438;-79
2022/01/17 08:52:34;;;;;;;5.60;1.93;;;6.50;1.00;;;;;;5058795;28;20199;-76
2022/01/17 08:55:00;;;;;;;6.03;2.10;;;6.40;1.00;;;;;;5059057;28;20953;-74
2022/01/17 08:57:26;;;;;;;2.10;2.00;;;6.40;1.00;;;;;;5054566;28;20183;-78
2022/01/17 08:59:52;;;;;;;9.57;2.17;;;6.40;99.90;;;;;;5085508;28;20251;-76
2022/01/17 09:02:18;;;;;;;3.73;1.63;;;6.40;99.90;;;;;;5074337;28;20454;-78
2022/01/17 09:04:44;;;;;;;6.73;2.67;;;6.40;99.90;;;;;;5080362;28;20781;-75
2022/01/17 09:07:12;;;;;;;19.20;2.83;;;6.40;99.90;;;;;;5072502;28;20404;-73
2022/01/17 09:09:39;;;;;;;8.73;3.30;;;6.50;99.90;;;;;;5082005;28;20537;-73
2022/01/17 09:12:09;;;;;;;7.47;2.80;;;6.50;99.90;;;;;;5092572;28;20508;-77
2022/01/17 09:14:35;;;;;;;8.80;2.63;;;6.40;99.90;;;;;;5082837;28;20423;-75
2022/01/17 09:17:02;;;;;;;7.83;3.00;;;6.50;99.90;;;;;;5054075;28;20424;-76
2022/01/17 09:19:28;;;;;;;15.87;3.07;;;6.70;99.90;;;;;;5080369;28;20436;-74
2022/01/17 09:21:54;;;;;;;6.93;2.40;;;6.80;99.90;;;;;;5064517;28;20482;-74
2022/01/17 09:24:20;;;;;;;4.60;2.63;;;6.90;99.90;;;;;;5078139;28;20471;-75
2022/01/17 09:26:46;;;;;;;5.53;3.67;;;6.80;99.90;;;;;;5085322;28;20649;-76
2022/01/17 09:29:12;;;;;;;7.17;2.07;;;6.70;99.90;;;;;;5093266;28;20170;-74
2022/01/17 09:31:38;;;;;;;4.13;2.23;;;6.40;99.90;;;;;;5098814;28;20501;-75
2022/01/17 09:34:04;;;;;;;7.70;2.37;;;6.20;99.90;;;;;;5096315;28;20425;-74
2022/01/17 09:36:33;;;;;;;6.23;2.80;;;6.10;99.90;;;;;;5073758;28;20281;-76
2022/01/17 09:39:00;;;;;;;5.87;2.23;;;6.00;99.90;;;;;;5089765;28;20206;-79
2022/01/17 09:41:26;;;;;;;9.70;2.40;;;6.10;99.90;;;;;;5087048;28;20473;-76
2022/01/17 09:43:52;;;;;;;6.80;2.30;;;6.10;99.90;;;;;;5080966;28;20428;-76
2022/01/17 09:46:22;;;;;;;11.13;2.67;;;6.20;99.90;;;;;;5082453;28;20757;-74
2022/01/17 09:48:50;;;;;;;3.37;1.80;;;6.20;99.90;;;;;;5095147;28;20394;-75
2022/01/17 09:51:33;;;;;;;10.90;2.57;;;6.10;99.90;;;;;;5082445;28;20447;-77
2022/01/17 09:54:00;;;;;;;5.03;2.70;;;6.20;99.90;;;;;;5086518;28;20423;-74
2022/01/17 09:56:27;;;;;;;7.43;3.37;;;6.20;99.90;;;;;;5075354;28;20420;-76
2022/01/17 09:58:52;;;;;;;10.97;3.00;;;6.20;99.90;;;;;;5074154;28;21007;-74
2022/01/17 10:01:18;;;;;;;2.67;2.10;;;6.30;99.90;;;;;;5084505;28;20456;-77
2022/01/17 10:03:46;;;;;;;7.80;2.90;;;6.40;99.90;;;;;;5088520;28;20173;-76
2022/01/17 10:06:11;;;;;;;8.33;2.63;;;6.30;99.90;;;;;;5076848;28;20178;-76
2022/01/17 10:08:37;;;;;;;4.77;3.33;;;6.40;99.90;;;;;;5088723;28;20432;-75
2022/01/17 10:11:05;;;;;;;14.07;2.90;;;6.40;99.90;;;;;;5085041;28;20649;-76
2022/01/17 10:13:34;;;;;;;9.73;4.73;;;6.50;99.90;;;;;;5091555;28;20177;-76
2022/01/17 10:16:09;;;;;;;9.83;3.47;;;6.40;99.90;;;;;;5076058;28;20927;-77
2022/01/17 10:18:39;;;;;;;14.00;2.70;;;6.30;99.90;;;;;;5094504;28;20406;-75
2022/01/17 10:21:18;;;;;;;7.90;4.23;;;6.30;99.90;;;;;;5071144;28;20462;-77
2022/01/17 10:35:18;;;;;;;11.37;4.23;;;6.40;99.90;;;;;;5079423;28;20431;-77
2022/01/17 10:38:29;;;;;;;17.47;3.77;;;6.40;99.90;;;;;;5086350;28;20417;-75
2022/01/17 10:41:00;;;;;;;8.83;3.67;;;6.40;99.90;;;;;;5084247;28;20462;-76
2022/01/17 10:43:35;;;;;;;11.83;4.47;;;6.40;99.90;;;;;;5081580;28;20877;-77
2022/01/17 10:46:04;;;;;;;19.07;4.33;;;6.40;99.90;;;;;;5093705;28;20489;-74
2022/01/17 10:48:42;;;;;;;7.80;3.63;;;6.30;99.90;;;;;;5073911;28;20499;-82
2022/01/17 10:51:09;;;;;;;6.93;4.23;;;6.20;99.90;;;;;;5075254;28;20456;-76
2022/01/17 10:53:39;;;;;;;5.73;2.70;;;6.10;99.90;;;;;;5074272;28;20847;-77
2022/01/17 10:56:08;;;;;;;13.57;2.90;;;6.00;99.90;;;;;;5056469;28;20991;-76
2022/01/17 10:58:36;;;;;;;6.23;3.80;;;6.00;99.90;;;;;;5078120;28;20453;-75
2022/01/17 11:01:10;;;;;;;5.53;3.10;;;6.00;99.90;;;;;;5094743;28;20962;-76
2022/01/17 11:03:39;;;;;;;3.83;3.10;;;6.00;99.90;;;;;;5106084;28;20527;-76
2022/01/17 11:06:11;;;;;;;11.33;4.13;;;6.00;99.90;;;;;;5083355;28;20430;-77
2022/01/17 11:08:39;;;;;;;17.30;4.07;;;6.00;99.90;;;;;;5085914;28;20940;-75
2022/01/17 11:11:08;;;;;;;8.53;3.20;;;6.10;99.90;;;;;;5073960;28;20428;-78
2022/01/17 11:13:35;;;;;;;7.70;3.00;;;6.10;99.90;;;;;;5074291;28;20455;-77
2022/01/17 11:16:07;;;;;;;13.97;4.10;;;6.10;99.90;;;;;;5082969;28;20415;-77
2022/01/17 11:18:35;;;;;;;14.80;4.97;;;6.10;99.90;;;;;;5088737;28;20423;-76
2022/01/17 11:21:17;;;;;;;9.60;3.80;;;6.10;99.90;;;;;;5073710;28;20464;-79
2022/01/17 11:23:47;;;;;;;4.97;4.10;;;6.10;99.90;;;;;;5055755;28;20447;-78
2022/01/17 11:26:13;;;;;;;10.43;3.47;;;6.10;99.90;;;;;;5058442;28;20832;-76
2022/01/17 11:28:40;;;;;;;8.03;2.90;;;6.20;99.90;;;;;;5089905;28;20502;-75
2022/01/17 11:31:11;;;;;;;10.57;3.50;;;6.20;99.90;;;;;;5093903;28;20416;-75
2022/01/17 11:33:36;;;;;;;9.17;3.47;;;6.20;99.90;;;;;;5079204;28;20485;-76
2022/01/17 11:36:03;;;;;;;6.87;3.63;;;6.20;99.90;;;;;;5073491;28;20436;-76
2022/01/17 11:38:33;;;;;;;8.03;3.73;;;6.10;99.90;;;;;;5086179;28;20168;-81
2022/01/17 11:41:00;;;;;;;8.83;4.73;;;6.10;99.90;;;;;;5073415;28;20460;-78
2022/01/17 11:43:35;;;;;;;12.33;3.20;;;6.10;99.90;;;;;;5074564;28;20412;-78
2022/01/17 11:46:25;;;;;;;9.53;3.70;;;6.10;99.90;;;;;;5093133;28;20411;-74
2022/01/17 11:48:58;;;;;;;6.63;3.63;;;6.10;99.90;;;;;;5092191;28;20455;-75
2022/01/17 11:51:33;;;;;;;6.20;2.77;;;6.10;99.90;;;;;;5093373;28;20765;-79
2022/01/17 11:54:09;;;;;;;9.70;3.57;;;6.10;99.90;;;;;;5087236;28;20427;-76
2022/01/17 11:56:47;;;;;;;12.97;4.00;;;6.10;99.90;;;;;;5055466;28;20455;-79
2022/01/17 11:59:34;;;;;;;12.90;3.20;;;6.10;99.50;;;;;;5073433;28;20426;-77
2022/01/17 12:02:23;;;;;;;19.73;4.03;;;6.10;97.10;;;;;;5073980;28;20856;-79
2022/01/17 12:05:07;;;;;;;3.70;2.60;;;6.20;96.10;;;;;;5093239;28;20404;-78
2022/01/17 12:07:44;;;;;;;10.23;3.37;;;6.20;95.50;;;;;;5091666;28;20981;-76
2022/01/17 12:10:13;;;;;;;8.03;2.87;;;6.20;83.20;;;;;;5092483;28;20433;-75
2022/01/17 12:12:39;;;;;;;19.03;3.17;;;6.20;90.70;;;;;;5087933;28;20542;-78
2022/01/17 12:15:13;;;;;;;6.00;2.70;;;6.20;78.80;;;;;;5072965;28;20491;-78
2022/01/17 12:17:39;;;;;;;12.50;4.80;;;6.20;73.10;;;;;;5077473;28;20256;-75
2022/01/17 12:20:05;;;;;;;10.60;3.00;;;6.10;58.20;;;;;;5092233;28;20557;-76
2022/01/17 12:22:39;;;;;;;11.67;3.17;;;6.10;67.50;;;;;;5067647;28;20183;-78
2022/01/17 12:25:24;;;;;;;13.23;2.93;;;6.00;64.20;;;;;;5073043;28;20168;-77
2022/01/17 12:27:51;;;;;;;4.97;3.17;;;6.00;61.80;;;;;;5082565;28;20919;-78
2022/01/17 12:30:17;;;;;;;12.70;3.27;;;6.00;71.20;;;;;;5074178;28;20920;-76
2022/01/17 12:32:49;;;;;;;11.87;3.17;;;6.00;69.20;;;;;;5084532;28;20424;-76
2022/01/17 12:35:22;;;;;;;17.47;3.60;;;6.00;71.90;;;;;;5054997;28;20500;-75
2022/01/17 12:37:52;;;;;;;3.33;2.60;;;6.00;63.10;;;;;;5062824;28;20826;-76
2022/01/17 12:40:38;;;;;;;10.10;3.40;;;6.00;64.20;;;;;;5073363;28;20540;-79
2022/01/17 12:43:11;;;;;;;16.63;4.40;;;6.00;43.50;;;;;;5065062;28;20431;-77
2022/01/17 12:45:46;;;;;;;8.17;3.37;;;6.00;34.50;;;;;;5054981;28;20476;-76
2022/01/17 12:48:20;;;;;;;12.27;3.40;;;5.90;36.90;;;;;;5082489;28;20423;-78
2022/01/17 12:50:47;;;;;;;3.70;3.00;;;5.90;33.10;;;;;;5092083;28;20418;-79
2022/01/17 12:53:16;;;;;;;13.20;4.70;;;6.00;29.30;;;;;;5064997;28;20421;-78
2022/01/17 12:55:48;;;;;;;5.87;3.20;;;6.00;29.30;;;;;;5072819;28;20474;-77
2022/01/17 12:58:20;;;;;;;13.83;3.53;;;6.00;29.30;;;;;;5081618;28;20481;-78
2022/01/17 13:01:01;;;;;;;21.47;4.40;;;6.00;29.30;;;;;;5091569;28;20455;-76
2022/01/17 13:03:29;;;;;;;4.37;3.13;;;6.00;18.30;;;;;;5066515;28;20458;-76
2022/01/17 13:05:56;;;;;;;8.27;3.50;;;6.00;16.50;;;;;;5076755;28;20396;-76
2022/01/17 13:08:23;;;;;;;12.30;4.10;;;6.00;23.50;;;;;;5067022;28;20441;-79
2022/01/17 13:10:49;;;;;;;5.97;3.47;;;5.90;15.50;;;;;;5077805;28;20431;-76
2022/01/17 13:13:17;;;;;;;15.77;3.60;;;5.80;12.10;;;;;;5077737;28;20447;-76
2022/01/17 13:16:02;;;;;;;12.63;4.60;;;5.90;13.60;;;;;;5096827;28;20395;-78
2022/01/17 13:18:30;;;;;;;7.83;3.10;;;5.90;7.30;;;;;;5087430;28;20416;-80
2022/01/17 13:20:57;;;;;;;3.87;3.20;;;5.90;1.00;;;;;;5076132;28;20471;-79
2022/01/17 13:23:32;;;;;;;6.77;3.00;;;6.00;1.00;;;;;;5086813;28;20759;-76
2022/01/17 13:25:59;;;;;;;7.33;3.50;;;6.00;1.00;;;;;;5096471;28;20756;-78
2022/01/17 13:28:25;;;;;;;7.87;2.93;;;5.90;1.00;;;;;;5085390;28;20424;-77
2022/01/17 13:30:50;;;;;;;15.20;3.27;;;5.90;1.00;;;;;;5075195;28;20416;-79